Nakhchivan — 9HHK8 — position and weather

sailwx.info

Track history (hours):
 
Tides and Currents Weather Stations Pressure Air Temp Water Temp Dewpoint Dewpoint Depression Visibility Wind Speed Wind Dir Waves Ship Positions

Nakhchivan

Last reported at 2017-Apr-29 13:28 UTC. Time now 2017-Apr-29 13:40 UTC.
Position N 32°51' E 034°60'.

Length 139 m; draft 4.5 m.

Type: Cargo ship. MMSI: 215983000.

Date/timePositionNaut miles runAvg speedWind from/ knotsBaromVisibWave heightAir tempDewpointWater temp
2017-Apr-29 13:28N 32°51' E 034°60'0 0.0
2017-Apr-29 13:00N 32°51' E 034°60'0 0.0
2017-Apr-29 12:30N 32°51' E 034°60'0 0.0
2017-Apr-29 12:01N 32°51' E 034°60'0 0.0
2017-Apr-29 11:30N 32°51' E 034°60'0 0.0
2017-Apr-29 10:58N 32°51' E 034°60'0 0.0
2017-Apr-29 10:29N 32°51' E 034°60'0 0.0
2017-Apr-29 09:59N 32°51' E 034°60'0 0.0
2017-Apr-29 09:29N 32°51' E 034°60'0 0.0
2017-Apr-29 09:00N 32°51' E 034°60'0 0.0
2017-Apr-29 08:29N 32°51' E 034°60'0 0.0
2017-Apr-29 07:53N 32°51' E 034°60'0 0.0
2017-Apr-29 07:29N 32°51' E 034°60'0 0.0
2017-Apr-29 06:58N 32°51' E 034°60'0 0.1
2017-Apr-29 06:29N 32°51' E 034°60'0 0.1
2017-Apr-29 05:57N 32°51' E 034°60'0 0.1
2017-Apr-29 05:24N 32°51' E 034°60'0 0.0
2017-Apr-29 04:59N 32°51' E 034°60'0 0.0
2017-Apr-29 04:30N 32°51' E 034°60'0 0.0
2017-Apr-29 03:55N 32°51' E 034°60'0 0.0
2017-Apr-29 03:30N 32°51' E 034°60'0 0.0
2017-Apr-29 02:57N 32°51' E 034°60'0 0.0
2017-Apr-29 02:28N 32°51' E 034°60'0 0.0
2017-Apr-29 01:59N 32°51' E 034°60'0 0.0
2017-Apr-29 01:29N 32°51' E 034°60'0 0.0
2017-Apr-29 00:59N 32°51' E 034°60'0 0.0
2017-Apr-29 00:29N 32°51' E 034°60'0 0.0
2017-Apr-28 23:56N 32°51' E 034°60'0 0.1
2017-Apr-28 23:27N 32°51' E 034°60'0 0.2
2017-Apr-28 22:56N 32°51' E 034°60'0 0.0
2017-Apr-28 22:28N 32°51' E 034°60'0 0.0
2017-Apr-28 21:58N 32°51' E 034°60'0 0.0
2017-Apr-28 21:29N 32°51' E 034°60'0 0.0
2017-Apr-28 20:59N 32°51' E 034°60'0 0.0
2017-Apr-28 20:28N 32°51' E 034°60'0 0.0
2017-Apr-28 19:58N 32°51' E 034°60'0 0.0
2017-Apr-28 19:31N 32°51' E 034°60'0 0.1
2017-Apr-28 18:59N 32°51' E 034°60'0 0.0
2017-Apr-28 18:30N 32°51' E 034°60'0 0.0
2017-Apr-28 18:00N 32°51' E 034°60'0 0.0
2017-Apr-28 17:28N 32°51' E 034°60'0 0.0
2017-Apr-28 17:00N 32°51' E 034°60'0 0.1
2017-Apr-28 16:28N 32°51' E 034°60'2 4.4
2017-Apr-28 16:00N 32°52' E 034°58'10 9.5
2017-Apr-28 15:00N 32°54' E 034°47'13 9.8
2017-Apr-28 13:40N 32°56' E 034°31'210.1
2017-Apr-28 13:29N 32°56' E 034°29'610.2
2017-Apr-28 12:56N 32°57' E 034°23'610.2
2017-Apr-28 12:24N 32°58' E 034°16'610.0
2017-Apr-28 11:45N 32°59' E 034°08'2 9.9
2017-Apr-28 11:30N 32°59' E 034°06'14 9.6
2017-Apr-28 10:02N 32°60' E 033°49'0 9.6
2017-Apr-28 10:00N 32°60' E 033°48'5 9.4
2017-Apr-28 09:30N 33°00' E 033°43'71 8.9
2017-Apr-28 01:33N 33°13' E 032°20'  
2017-Apr-23 17:23N 35°56' E 014°39'4 9.7
2017-Apr-23 17:00N 35°58' E 014°35'5 9.8
2017-Apr-23 16:30N 36°01' E 014°30'5 9.8
2017-Apr-23 16:00N 36°04' E 014°25'5 9.7
2017-Apr-23 15:30N 36°07' E 014°20'5 9.9
2017-Apr-23 15:00N 36°10' E 014°15'1010.0
2017-Apr-23 14:00N 36°16' E 014°06'510.5
2017-Apr-23 13:30N 36°20' E 014°02'510.6
2017-Apr-23 12:59N 36°24' E 013°57'  
2017-Apr-20 22:14N 43°03' E 004°37'33 9.9
2017-Apr-20 18:53N 43°18' E 003°56'610.0
2017-Apr-20 18:15N 43°21' E 003°49'  
Track history (hours):
 
Tides and Currents Weather Stations Pressure Air Temp Water Temp Dewpoint Dewpoint Depression Visibility Wind Speed Wind Dir Waves Ship Positions

Nakhchivan

Last reported at 2017-Apr-29 13:28 UTC. Time now 2017-Apr-29 13:40 UTC.
Position N 32°51' E 034°60'.

Length 139 m; draft 4.5 m.

Type: Cargo ship. MMSI: 215983000.

Date/timePositionNaut miles runAvg speedWind from/ knotsBaromVisibWave heightAir tempDewpointWater temp
2017-Apr-29 13:28N 32°51' E 034°60'0 0.0
2017-Apr-29 13:00N 32°51' E 034°60'0 0.0
2017-Apr-29 12:30N 32°51' E 034°60'0 0.0
2017-Apr-29 12:01N 32°51' E 034°60'0 0.0
2017-Apr-29 11:30N 32°51' E 034°60'0 0.0
2017-Apr-29 10:58N 32°51' E 034°60'0 0.0
2017-Apr-29 10:29N 32°51' E 034°60'0 0.0
2017-Apr-29 09:59N 32°51' E 034°60'0 0.0
2017-Apr-29 09:29N 32°51' E 034°60'0 0.0
2017-Apr-29 09:00N 32°51' E 034°60'0 0.0
2017-Apr-29 08:29N 32°51' E 034°60'0 0.0
2017-Apr-29 07:53N 32°51' E 034°60'0 0.0
2017-Apr-29 07:29N 32°51' E 034°60'0 0.0
2017-Apr-29 06:58N 32°51' E 034°60'0 0.1
2017-Apr-29 06:29N 32°51' E 034°60'0 0.1
2017-Apr-29 05:57N 32°51' E 034°60'0 0.1
2017-Apr-29 05:24N 32°51' E 034°60'0 0.0
2017-Apr-29 04:59N 32°51' E 034°60'0 0.0
2017-Apr-29 04:30N 32°51' E 034°60'0 0.0
2017-Apr-29 03:55N 32°51' E 034°60'0 0.0
2017-Apr-29 03:30N 32°51' E 034°60'0 0.0
2017-Apr-29 02:57N 32°51' E 034°60'0 0.0
2017-Apr-29 02:28N 32°51' E 034°60'0 0.0
2017-Apr-29 01:59N 32°51' E 034°60'0 0.0
2017-Apr-29 01:29N 32°51' E 034°60'0 0.0
2017-Apr-29 00:59N 32°51' E 034°60'0 0.0
2017-Apr-29 00:29N 32°51' E 034°60'0 0.0
2017-Apr-28 23:56N 32°51' E 034°60'0 0.1
2017-Apr-28 23:27N 32°51' E 034°60'0 0.2
2017-Apr-28 22:56N 32°51' E 034°60'0 0.0
2017-Apr-28 22:28N 32°51' E 034°60'0 0.0
2017-Apr-28 21:58N 32°51' E 034°60'0 0.0
2017-Apr-28 21:29N 32°51' E 034°60'0 0.0
2017-Apr-28 20:59N 32°51' E 034°60'0 0.0
2017-Apr-28 20:28N 32°51' E 034°60'0 0.0
2017-Apr-28 19:58N 32°51' E 034°60'0 0.0
2017-Apr-28 19:31N 32°51' E 034°60'0 0.1
2017-Apr-28 18:59N 32°51' E 034°60'0 0.0
2017-Apr-28 18:30N 32°51' E 034°60'0 0.0
2017-Apr-28 18:00N 32°51' E 034°60'0 0.0
2017-Apr-28 17:28N 32°51' E 034°60'0 0.0
2017-Apr-28 17:00N 32°51' E 034°60'0 0.1
2017-Apr-28 16:28N 32°51' E 034°60'2 4.4
2017-Apr-28 16:00N 32°52' E 034°58'10 9.5
2017-Apr-28 15:00N 32°54' E 034°47'13 9.8
2017-Apr-28 13:40N 32°56' E 034°31'210.1
2017-Apr-28 13:29N 32°56' E 034°29'610.2
2017-Apr-28 12:56N 32°57' E 034°23'610.2
2017-Apr-28 12:24N 32°58' E 034°16'610.0
2017-Apr-28 11:45N 32°59' E 034°08'2 9.9
2017-Apr-28 11:30N 32°59' E 034°06'14 9.6
2017-Apr-28 10:02N 32°60' E 033°49'0 9.6
2017-Apr-28 10:00N 32°60' E 033°48'5 9.4
2017-Apr-28 09:30N 33°00' E 033°43'71 8.9
2017-Apr-28 01:33N 33°13' E 032°20'  
2017-Apr-23 17:23N 35°56' E 014°39'4 9.7
2017-Apr-23 17:00N 35°58' E 014°35'5 9.8
2017-Apr-23 16:30N 36°01' E 014°30'5 9.8
2017-Apr-23 16:00N 36°04' E 014°25'5 9.7
2017-Apr-23 15:30N 36°07' E 014°20'5 9.9
2017-Apr-23 15:00N 36°10' E 014°15'1010.0
2017-Apr-23 14:00N 36°16' E 014°06'510.5
2017-Apr-23 13:30N 36°20' E 014°02'510.6
2017-Apr-23 12:59N 36°24' E 013°57'  
2017-Apr-20 22:14N 43°03' E 004°37'33 9.9
2017-Apr-20 18:53N 43°18' E 003°56'610.0
2017-Apr-20 18:15N 43°21' E 003°49'  

Dump ship's entire track history